Flugplatz Mengen-Hohentengen

Für EDTM sind keine METAR/TAF Berichte vorhanden.
Es werden die Flugwettermeldungen vom Flugplatz Friedrichshafen in 43 km Entfernung angezeigt.

Bericht für EDNY

vom 25.09. um 18:50 UTC

Wind 7 kt aus 260°

Sichtweite 10 km oder mehr

aufgebrochene Bewölkung in 1700 ft

bedeckt in 3200 ft

Temperatur 9.0°C

Taupunkt 7.0°C

Luftfeuchtigkeit 87%

Luftdruck 1003 hPa

EDNY 251850Z AUTO 26007KT 230V300 9999 // BKN017/// OVC032/// 09/07 Q1003

Prognose für EDNY

vom 25.09. um 17:00 UTC

Zwischen 18:00 UTC und 03:00 UTC

Wind 10 kt aus 240°

Sichtweite 10 km oder mehr

aufgebrochene Bewölkung in 2000 ft


Zwischen 18:00 UTC und 03:00 UTC zeitweise

Wind 15 kt aus 240° in Böen 25 kt

Regen

aufgebrochene Bewölkung in 1000 ft


Am 26.09. zwischen 03:00 und 05:00 UTC übergehend zu

Wind 15 kt aus 250° in Böen 30 kt

Sichtweite 10 km oder mehr

aufgebrochene Bewölkung in 2000 ft


Am 26.09. zwischen 05:00 UTC und 15:00 UTC zeitweise

Wind 20 kt aus 250° in Böen 40 kt

Regen

TAF EDNY 251700Z 2518/2618 24010KT 9999 BKN020 TEMPO 2518/2603 24015G25KT RA BKN010 BECMG 2603/2605 25015G30KT TEMPO 2605/2615 25020G40KT RA
Impressum